Gables, Florida
Current Conditions -  °F | °C
As of 7:53 PM on Thursday 27 Nov 2014 (Local Time) from KMIA Reporting Station
Clear Clear  
Wind Chill: 67°   Ceiling: Unl
Heat Index: 67°   Visibility: 10mi
Dew Point: 48°   Wind: 5mph
Humidity: 51%   Direction: 360°N
Pressure: 30.19"   Gusts: NA
Location:  25.7478°N, 80.2598°W
Report Text: KMIA 280053Z 36004KT 10SM CLR 19/09 A3019 RMK AO2 SLP224 T01940089
Loading
Personal Weather Stations






























Interactive Weather Map New forecast layout! Learn more

10-Day Weather Forecast

Advertisements
Track Severe Weather on mobile